sensor_id;sensor_type;location;lat;lon;timestamp;pressure;altitude;pressure_sealevel;temperature;humidity
53647;BME280;39550;52.230;5.194;2022-12-07T00:01:15;101693.78;;;4.35;81.57
53647;BME280;39550;52.230;5.194;2022-12-07T00:03:42;101678.13;;;4.27;81.35
53647;BME280;39550;52.230;5.194;2022-12-07T00:06:10;101680.66;;;4.27;81.56
53647;BME280;39550;52.230;5.194;2022-12-07T00:08:39;101708.78;;;4.47;81.31
53647;BME280;39550;52.230;5.194;2022-12-07T00:11:07;101706.91;;;4.42;81.44
53647;BME280;39550;52.230;5.194;2022-12-07T00:13:34;101735.03;;;4.62;81.88
53647;BME280;39550;52.230;5.194;2022-12-07T00:16:05;101736.78;;;4.63;81.21
53647;BME280;39550;52.230;5.194;2022-12-07T00:18:31;101728.91;;;4.58;81.87
53647;BME280;39550;52.230;5.194;2022-12-07T00:21:05;101711.47;;;4.50;81.38
53647;BME280;39550;52.230;5.194;2022-12-07T00:23:31;101725.78;;;4.64;81.76
53647;BME280;39550;52.230;5.194;2022-12-07T00:26:03;101701.06;;;4.45;81.63
53647;BME280;39550;52.230;5.194;2022-12-07T00:28:28;101722.25;;;4.62;81.49
53647;BME280;39550;52.230;5.194;2022-12-07T00:31:03;101674.09;;;4.32;81.71
53647;BME280;39550;52.230;5.194;2022-12-07T00:33:29;101673.16;;;4.30;81.14
53647;BME280;39550;52.230;5.194;2022-12-07T00:35:56;101715.34;;;4.59;81.52
53647;BME280;39550;52.230;5.194;2022-12-07T00:38:22;101709.50;;;4.62;81.68
53647;BME280;39550;52.230;5.194;2022-12-07T00:40:57;101706.88;;;4.60;81.70
53647;BME280;39550;52.230;5.194;2022-12-07T00:43:22;101670.72;;;4.33;81.77
53647;BME280;39550;52.230;5.194;2022-12-07T00:45:48;101649.91;;;4.24;81.23
53647;BME280;39550;52.230;5.194;2022-12-07T00:48:13;101665.63;;;4.33;81.80
53647;BME280;39550;52.230;5.194;2022-12-07T00:50:38;101685.63;;;4.42;81.94
53647;BME280;39550;52.230;5.194;2022-12-07T00:53:04;101683.13;;;4.43;81.35
53647;BME280;39550;52.230;5.194;2022-12-07T00:55:33;101637.50;;;4.14;81.73
53647;BME280;39550;52.230;5.194;2022-12-07T00:57:58;101662.00;;;4.28;81.56
53647;BME280;39550;52.230;5.194;2022-12-07T01:00:24;101650.72;;;4.23;81.58
53647;BME280;39550;52.230;5.194;2022-12-07T01:02:49;101552.97;;;3.68;81.31
53647;BME280;39550;52.230;5.194;2022-12-07T01:05:15;101684.88;;;4.45;81.28
53647;BME280;39550;52.230;5.194;2022-12-07T01:07:40;101620.09;;;4.05;81.37
53647;BME280;39550;52.230;5.194;2022-12-07T01:10:06;101631.47;;;4.12;81.82
53647;BME280;39550;52.230;5.194;2022-12-07T01:12:32;101693.03;;;4.55;81.26
53647;BME280;39550;52.230;5.194;2022-12-07T01:14:57;101704.13;;;4.56;80.93
53647;BME280;39550;52.230;5.194;2022-12-07T01:17:23;101628.94;;;4.12;81.67
53647;BME280;39550;52.230;5.194;2022-12-07T01:19:48;101626.31;;;4.10;80.75
53647;BME280;39550;52.230;5.194;2022-12-07T01:22:13;101662.66;;;4.24;81.58
53647;BME280;39550;52.230;5.194;2022-12-07T01:24:39;101705.72;;;4.54;81.51
53647;BME280;39550;52.230;5.194;2022-12-07T01:27:05;101577.81;;;3.72;81.17
53647;BME280;39550;52.230;5.194;2022-12-07T01:29:30;101565.72;;;3.68;80.94
53647;BME280;39550;52.230;5.194;2022-12-07T01:31:56;101534.88;;;3.46;81.45
53647;BME280;39550;52.230;5.194;2022-12-07T01:34:21;101622.47;;;4.00;81.38
53647;BME280;39550;52.230;5.194;2022-12-07T01:36:46;101664.25;;;4.22;81.49
53647;BME280;39550;52.230;5.194;2022-12-07T01:39:12;101665.75;;;4.17;81.27
53647;BME280;39550;52.230;5.194;2022-12-07T01:41:39;101706.25;;;4.47;81.56
53647;BME280;39550;52.230;5.194;2022-12-07T01:46:40;101673.53;;;4.20;81.48
53647;BME280;39550;52.230;5.194;2022-12-07T01:49:09;101684.91;;;4.26;81.38
53647;BME280;39550;52.230;5.194;2022-12-07T01:51:37;101725.13;;;4.50;81.22
53647;BME280;39550;52.230;5.194;2022-12-07T01:54:04;101600.22;;;3.80;81.25
53647;BME280;39550;52.230;5.194;2022-12-07T01:56:30;101719.13;;;4.50;80.91
53647;BME280;39550;52.230;5.194;2022-12-07T01:58:58;101715.78;;;4.51;81.10
53647;BME280;39550;52.230;5.194;2022-12-07T02:01:25;101694.94;;;4.41;81.47
53647;BME280;39550;52.230;5.194;2022-12-07T02:03:51;101714.03;;;4.50;81.27
53647;BME280;39550;52.230;5.194;2022-12-07T02:06:21;101646.00;;;4.13;80.86
53647;BME280;39550;52.230;5.194;2022-12-07T02:08:48;101653.97;;;4.20;81.47
53647;BME280;39550;52.230;5.194;2022-12-07T02:11:14;101607.81;;;3.96;81.53
53647;BME280;39550;52.230;5.194;2022-12-07T02:13:41;101592.94;;;3.87;81.08
53647;BME280;39550;52.230;5.194;2022-12-07T02:21:33;101629.72;;;4.11;81.03
53647;BME280;39550;52.230;5.194;2022-12-07T02:24:41;101692.69;;;4.48;80.94
53647;BME280;39550;52.230;5.194;2022-12-07T02:30:19;101693.47;;;4.47;81.24
53647;BME280;39550;52.230;5.194;2022-12-07T02:33:01;101674.31;;;4.37;80.88
53647;BME280;39550;52.230;5.194;2022-12-07T02:35:42;101650.44;;;4.17;81.18
53647;BME280;39550;52.230;5.194;2022-12-07T02:38:16;101686.63;;;4.46;81.25
53647;BME280;39550;52.230;5.194;2022-12-07T02:40:55;101631.53;;;4.13;80.99
53647;BME280;39550;52.230;5.194;2022-12-07T02:43:27;101684.88;;;4.45;81.76
53647;BME280;39550;52.230;5.194;2022-12-07T02:45:57;101642.09;;;4.21;81.16
53647;BME280;39550;52.230;5.194;2022-12-07T02:48:25;101538.69;;;3.54;81.40
53647;BME280;39550;52.230;5.194;2022-12-07T02:50:53;101695.09;;;4.45;80.95
53647;BME280;39550;52.230;5.194;2022-12-07T02:53:36;101677.38;;;4.30;80.91
53647;BME280;39550;52.230;5.194;2022-12-07T02:56:25;101688.25;;;4.43;81.57
53647;BME280;39550;52.230;5.194;2022-12-07T03:12:32;101568.09;;;3.65;80.85
53647;BME280;39550;52.230;5.194;2022-12-07T03:15:12;101632.28;;;4.11;81.33
53647;BME280;39550;52.230;5.194;2022-12-07T03:17:40;101546.63;;;3.60;81.23
53647;BME280;39550;52.230;5.194;2022-12-07T03:20:11;101603.50;;;3.95;80.79
53647;BME280;39550;52.230;5.194;2022-12-07T03:22:39;101682.09;;;4.40;80.88
53647;BME280;39550;52.230;5.194;2022-12-07T03:25:10;101606.00;;;3.94;81.51
53647;BME280;39550;52.230;5.194;2022-12-07T03:27:45;101598.91;;;3.88;81.22
53647;BME280;39550;52.230;5.194;2022-12-07T03:30:19;101587.75;;;3.86;81.47
53647;BME280;39550;52.230;5.194;2022-12-07T03:32:59;101539.31;;;3.50;80.92
53647;BME280;39550;52.230;5.194;2022-12-07T03:35:32;101694.78;;;4.38;80.85
53647;BME280;39550;52.230;5.194;2022-12-07T03:38:19;101691.44;;;4.39;80.89
53647;BME280;39550;52.230;5.194;2022-12-07T03:40:48;101688.91;;;4.39;80.73
53647;BME280;39550;52.230;5.194;2022-12-07T03:43:16;101527.25;;;3.46;80.85
53647;BME280;39550;52.230;5.194;2022-12-07T03:45:47;101635.63;;;4.09;80.92
53647;BME280;39550;52.230;5.194;2022-12-07T03:48:31;101617.56;;;4.05;81.19
53647;BME280;39550;52.230;5.194;2022-12-07T03:53:59;101611.50;;;4.03;80.97
53647;BME280;39550;52.230;5.194;2022-12-07T03:56:28;101571.53;;;3.84;81.00
53647;BME280;39550;52.230;5.194;2022-12-07T03:58:55;101664.16;;;4.38;80.84
53647;BME280;39550;52.230;5.194;2022-12-07T04:01:22;101610.09;;;4.09;81.00
53647;BME280;39550;52.230;5.194;2022-12-07T04:03:48;101526.25;;;3.60;80.99
53647;BME280;39550;52.230;5.194;2022-12-07T04:06:13;101498.28;;;3.44;81.30
53647;BME280;39550;52.230;5.194;2022-12-07T04:08:39;101535.13;;;3.68;80.66
53647;BME280;39550;52.230;5.194;2022-12-07T04:11:04;101549.00;;;3.75;81.28
53647;BME280;39550;52.230;5.194;2022-12-07T04:13:30;101519.47;;;3.61;81.39
53647;BME280;39550;52.230;5.194;2022-12-07T04:16:15;101542.66;;;3.67;80.85
53647;BME280;39550;52.230;5.194;2022-12-07T04:18:41;101573.25;;;3.85;81.38
53647;BME280;39550;52.230;5.194;2022-12-07T04:21:06;101613.31;;;4.05;80.81
53647;BME280;39550;52.230;5.194;2022-12-07T04:23:32;101535.13;;;3.50;80.65
53647;BME280;39550;52.230;5.194;2022-12-07T04:25:57;101621.56;;;4.00;81.49
53647;BME280;39550;52.230;5.194;2022-12-07T04:28:23;101622.78;;;4.08;80.85
53647;BME280;39550;52.230;5.194;2022-12-07T04:30:48;101551.06;;;3.64;80.96
53647;BME280;39550;52.230;5.194;2022-12-07T04:33:13;101592.50;;;3.96;81.23
53647;BME280;39550;52.230;5.194;2022-12-07T04:35:39;101505.84;;;3.42;80.98
53647;BME280;39550;52.230;5.194;2022-12-07T04:38:04;101649.38;;;4.31;80.77
53647;BME280;39550;52.230;5.194;2022-12-07T04:40:30;101590.75;;;3.95;81.48
53647;BME280;39550;52.230;5.194;2022-12-07T04:42:55;101603.84;;;4.03;80.91
53647;BME280;39550;52.230;5.194;2022-12-07T04:45:20;101575.16;;;3.89;81.50
53647;BME280;39550;52.230;5.194;2022-12-07T04:47:46;101488.56;;;3.36;81.09
53647;BME280;39550;52.230;5.194;2022-12-07T04:50:12;101596.00;;;3.98;81.04
53647;BME280;39550;52.230;5.194;2022-12-07T04:52:37;101590.88;;;3.98;81.41
53647;BME280;39550;52.230;5.194;2022-12-07T04:55:03;101648.44;;;4.29;81.39
53647;BME280;39550;52.230;5.194;2022-12-07T04:57:28;101639.97;;;4.30;80.75
53647;BME280;39550;52.230;5.194;2022-12-07T04:59:53;101552.44;;;3.75;81.42
53647;BME280;39550;52.230;5.194;2022-12-07T05:02:19;101557.69;;;3.79;80.81
53647;BME280;39550;52.230;5.194;2022-12-07T05:04:44;101641.59;;;4.28;81.29
53647;BME280;39550;52.230;5.194;2022-12-07T05:07:10;101645.22;;;4.33;81.31
53647;BME280;39550;52.230;5.194;2022-12-07T05:09:35;101572.84;;;3.94;80.98
53647;BME280;39550;52.230;5.194;2022-12-07T05:12:01;101579.69;;;3.95;81.13
53647;BME280;39550;52.230;5.194;2022-12-07T05:14:26;101645.97;;;4.31;81.28
53647;BME280;39550;52.230;5.194;2022-12-07T05:16:51;101645.09;;;4.30;81.74
53647;BME280;39550;52.230;5.194;2022-12-07T05:19:19;101571.00;;;3.91;81.32
53647;BME280;39550;52.230;5.194;2022-12-07T05:21:45;101577.69;;;3.89;81.26
53647;BME280;39550;52.230;5.194;2022-12-07T05:24:12;101490.97;;;3.33;81.18
53647;BME280;39550;52.230;5.194;2022-12-07T05:26:38;101588.84;;;3.91;81.37
53647;BME280;39550;52.230;5.194;2022-12-07T05:29:04;101554.94;;;3.74;81.32
53647;BME280;39550;52.230;5.194;2022-12-07T05:31:29;101491.13;;;3.36;80.88
53647;BME280;39550;52.230;5.194;2022-12-07T05:33:55;101588.34;;;3.98;81.17
53647;BME280;39550;52.230;5.194;2022-12-07T05:36:21;101588.84;;;3.91;81.24
53647;BME280;39550;52.230;5.194;2022-12-07T05:38:46;101621.41;;;4.15;81.49
53647;BME280;39550;52.230;5.194;2022-12-07T05:41:14;101478.91;;;3.29;81.11
53647;BME280;39550;52.230;5.194;2022-12-07T05:43:59;101554.03;;;3.73;81.14
53647;BME280;39550;52.230;5.194;2022-12-07T05:46:32;101484.31;;;3.35;81.52
53647;BME280;39550;52.230;5.194;2022-12-07T05:49:02;101556.50;;;3.72;81.42
53647;BME280;39550;52.230;5.194;2022-12-07T05:51:28;101597.59;;;3.96;81.05
53647;BME280;39550;52.230;5.194;2022-12-07T05:53:54;101615.38;;;4.13;80.82
53647;BME280;39550;52.230;5.194;2022-12-07T05:56:22;101568.25;;;3.86;81.06
53647;BME280;39550;52.230;5.194;2022-12-07T05:58:48;101551.41;;;3.72;80.86
53647;BME280;39550;52.230;5.194;2022-12-07T06:01:32;101639.78;;;4.25;81.06
53647;BME280;39550;52.230;5.194;2022-12-07T06:04:01;101490.41;;;3.39;80.39
53647;BME280;39550;52.230;5.194;2022-12-07T06:06:26;101582.31;;;3.96;81.39
53647;BME280;39550;52.230;5.194;2022-12-07T06:08:54;101564.69;;;3.83;80.88
53647;BME280;39550;52.230;5.194;2022-12-07T06:11:37;101472.94;;;3.29;80.76
53647;BME280;39550;52.230;5.194;2022-12-07T06:14:21;101539.25;;;3.66;80.71
53647;BME280;39550;52.230;5.194;2022-12-07T06:16:47;101598.41;;;3.95;81.11
53647;BME280;39550;52.230;5.194;2022-12-07T06:19:12;101552.31;;;3.72;80.94
53647;BME280;39550;52.230;5.194;2022-12-07T06:21:37;101638.03;;;4.24;80.95
53647;BME280;39550;52.230;5.194;2022-12-07T06:24:03;101652.53;;;4.25;81.07
53647;BME280;39550;52.230;5.194;2022-12-07T06:26:29;101643.84;;;4.22;81.26
53647;BME280;39550;52.230;5.194;2022-12-07T06:28:55;101551.16;;;3.66;81.24
53647;BME280;39550;52.230;5.194;2022-12-07T06:31:21;101590.69;;;3.94;81.21
53647;BME280;39550;52.230;5.194;2022-12-07T06:33:46;101579.53;;;3.91;80.83
53647;BME280;39550;52.230;5.194;2022-12-07T06:36:12;101636.06;;;4.19;80.93
53647;BME280;39550;52.230;5.194;2022-12-07T06:38:38;101560.88;;;3.74;80.86
53647;BME280;39550;52.230;5.194;2022-12-07T06:41:06;101643.13;;;4.24;80.80
53647;BME280;39550;52.230;5.194;2022-12-07T06:43:32;101575.91;;;3.86;80.87
53647;BME280;39550;52.230;5.194;2022-12-07T06:46:00;101551.34;;;3.70;80.92
53647;BME280;39550;52.230;5.194;2022-12-07T06:48:26;101598.41;;;3.95;81.32
53647;BME280;39550;52.230;5.194;2022-12-07T06:50:51;101599.91;;;3.91;80.83
53647;BME280;39550;52.230;5.194;2022-12-07T06:53:17;101634.44;;;4.21;81.21
53647;BME280;39550;52.230;5.194;2022-12-07T06:55:42;101639.47;;;4.19;80.94
53647;BME280;39550;52.230;5.194;2022-12-07T06:58:07;101602.13;;;4.02;80.96
53647;BME280;39550;52.230;5.194;2022-12-07T07:00:33;101637.94;;;4.23;81.07
53647;BME280;39550;52.230;5.194;2022-12-07T07:03:00;101637.94;;;4.23;81.17
53647;BME280;39550;52.230;5.194;2022-12-07T07:05:25;101601.09;;;3.98;81.05
53647;BME280;39550;52.230;5.194;2022-12-07T07:07:57;101613.31;;;4.05;80.92
53647;BME280;39550;52.230;5.194;2022-12-07T07:10:22;101572.84;;;3.75;81.49
53647;BME280;39550;52.230;5.194;2022-12-07T07:12:48;101572.97;;;3.79;81.08
53647;BME280;39550;52.230;5.194;2022-12-07T07:15:13;101620.97;;;4.05;81.11
53647;BME280;39550;52.230;5.194;2022-12-07T07:25:43;101576.19;;;3.74;80.84
53647;BME280;39550;52.230;5.194;2022-12-07T07:46:02;101658.94;;;4.17;80.64
53647;BME280;39550;52.230;5.194;2022-12-07T07:52:00;101651.28;;;4.17;81.02
53647;BME280;39550;52.230;5.194;2022-12-07T07:54:25;101657.19;;;4.16;81.06
53647;BME280;39550;52.230;5.194;2022-12-07T07:56:52;101654.72;;;4.18;81.08
53647;BME280;39550;52.230;5.194;2022-12-07T07:59:17;101666.81;;;4.22;80.93
53647;BME280;39550;52.230;5.194;2022-12-07T08:01:42;101673.53;;;4.20;80.58
53647;BME280;39550;52.230;5.194;2022-12-07T08:04:08;101675.25;;;4.21;80.92
53647;BME280;39550;52.230;5.194;2022-12-07T08:06:34;101674.31;;;4.19;80.65
53647;BME280;39550;52.230;5.194;2022-12-07T08:08:59;101662.44;;;4.19;80.55
53647;BME280;39550;52.230;5.194;2022-12-07T08:11:25;101666.66;;;4.19;80.92
53647;BME280;39550;52.230;5.194;2022-12-07T08:13:50;101659.81;;;4.18;81.15
53647;BME280;39550;52.230;5.194;2022-12-07T08:16:16;101669.22;;;4.19;80.86
53647;BME280;39550;52.230;5.194;2022-12-07T08:18:42;101667.53;;;4.19;80.37
53647;BME280;39550;52.230;5.194;2022-12-07T08:21:11;101665.88;;;4.20;80.82
53647;BME280;39550;52.230;5.194;2022-12-07T08:23:36;101669.22;;;4.19;80.62
53647;BME280;39550;52.230;5.194;2022-12-07T08:26:04;101674.41;;;4.20;80.75
53647;BME280;39550;52.230;5.194;2022-12-07T08:28:29;101670.97;;;4.20;81.11
53647;BME280;39550;52.230;5.194;2022-12-07T08:31:08;101673.59;;;4.21;80.62
53647;BME280;39550;52.230;5.194;2022-12-07T08:33:35;101673.66;;;4.23;80.40
53647;BME280;39550;52.230;5.194;2022-12-07T08:36:06;101682.13;;;4.22;80.76
53647;BME280;39550;52.230;5.194;2022-12-07T08:38:33;101679.56;;;4.22;80.84
53647;BME280;39550;52.230;5.194;2022-12-07T08:40:59;101681.31;;;4.23;80.51
53647;BME280;39550;52.230;5.194;2022-12-07T08:43:24;101671.91;;;4.22;80.77
53647;BME280;39550;52.230;5.194;2022-12-07T08:45:58;101663.31;;;4.20;80.69
53647;BME280;39550;52.230;5.194;2022-12-07T08:48:25;101670.16;;;4.21;80.59
53647;BME280;39550;52.230;5.194;2022-12-07T08:50:51;101661.72;;;4.22;81.13
53647;BME280;39550;52.230;5.194;2022-12-07T08:53:17;101660.84;;;4.21;80.65
53647;BME280;39550;52.230;5.194;2022-12-07T08:55:44;101653.25;;;4.23;80.33
53647;BME280;39550;52.230;5.194;2022-12-07T08:58:10;101653.25;;;4.23;80.63
53647;BME280;39550;52.230;5.194;2022-12-07T09:00:35;101648.16;;;4.23;80.27
53647;BME280;39550;52.230;5.194;2022-12-07T09:03:01;101643.13;;;4.24;80.96
53647;BME280;39550;52.230;5.194;2022-12-07T09:05:26;101651.63;;;4.25;80.61
53647;BME280;39550;52.230;5.194;2022-12-07T09:07:55;101652.41;;;4.22;80.84
53647;BME280;39550;52.230;5.194;2022-12-07T09:10:22;101658.50;;;4.26;80.18
53647;BME280;39550;52.230;5.194;2022-12-07T09:12:48;101651.50;;;4.22;80.80
53647;BME280;39550;52.230;5.194;2022-12-07T09:15:14;101664.31;;;4.23;80.21
53647;BME280;39550;52.230;5.194;2022-12-07T09:17:40;101666.94;;;4.25;80.27
53647;BME280;39550;52.230;5.194;2022-12-07T09:20:06;101668.69;;;4.26;80.84
53647;BME280;39550;52.230;5.194;2022-12-07T09:22:31;101668.78;;;4.28;80.76
53647;BME280;39550;52.230;5.194;2022-12-07T09:24:58;101664.56;;;4.28;80.76
53647;BME280;39550;52.230;5.194;2022-12-07T09:27:23;101667.97;;;4.29;80.35
53647;BME280;39550;52.230;5.194;2022-12-07T09:29:49;101671.38;;;4.29;80.59
53647;BME280;39550;52.230;5.194;2022-12-07T09:32:14;101672.28;;;4.30;81.00
53647;BME280;39550;52.230;5.194;2022-12-07T09:34:39;101665.50;;;4.30;80.62
53647;BME280;39550;52.230;5.194;2022-12-07T09:37:05;101658.72;;;4.31;80.46
53647;BME280;39550;52.230;5.194;2022-12-07T09:39:31;101662.88;;;4.29;80.27
53647;BME280;39550;52.230;5.194;2022-12-07T09:41:57;101668.03;;;4.30;80.64
53647;BME280;39550;52.230;5.194;2022-12-07T09:44:24;101659.53;;;4.30;80.18
53647;BME280;39550;52.230;5.194;2022-12-07T09:46:51;101663.72;;;4.29;80.68
53647;BME280;39550;52.230;5.194;2022-12-07T09:49:20;101658.63;;;4.29;80.68
53647;BME280;39550;52.230;5.194;2022-12-07T09:51:46;101655.34;;;4.32;80.45
53647;BME280;39550;52.230;5.194;2022-12-07T09:54:14;101658.81;;;4.32;80.70
53647;BME280;39550;52.230;5.194;2022-12-07T09:56:41;101656.38;;;4.35;80.49
53647;BME280;39550;52.230;5.194;2022-12-07T09:59:13;101648.72;;;4.35;80.10
53647;BME280;39550;52.230;5.194;2022-12-07T10:01:41;101649.53;;;4.34;80.02
53647;BME280;39550;52.230;5.194;2022-12-07T10:04:17;101653.69;;;4.32;80.42
53647;BME280;39550;52.230;5.194;2022-12-07T10:06:43;101642.41;;;4.27;80.26
53647;BME280;39550;52.230;5.194;2022-12-07T10:09:13;101642.53;;;4.30;80.13
53647;BME280;39550;52.230;5.194;2022-12-07T10:14:29;101643.56;;;4.34;80.19
53647;BME280;39550;52.230;5.194;2022-12-07T10:16:55;101645.38;;;4.36;80.31
53647;BME280;39550;52.230;5.194;2022-12-07T10:19:29;101634.22;;;4.34;80.29
53647;BME280;39550;52.230;5.194;2022-12-07T10:24:26;101641.34;;;4.41;80.55
53647;BME280;39550;52.230;5.194;2022-12-07T10:26:52;101636.13;;;4.58;80.16
53647;BME280;39550;52.230;5.194;2022-12-07T10:29:29;101627.53;;;4.56;80.23
53647;BME280;39550;52.230;5.194;2022-12-07T10:32:04;101629.81;;;4.50;80.33
53647;BME280;39550;52.230;5.194;2022-12-07T10:34:37;101627.97;;;4.47;80.41
53647;BME280;39550;52.230;5.194;2022-12-07T10:37:23;101614.44;;;4.48;80.58
53647;BME280;39550;52.230;5.194;2022-12-07T10:39:54;101622.31;;;4.53;80.10
53647;BME280;39550;52.230;5.194;2022-12-07T10:44:46;101617.22;;;4.53;80.24
53647;BME280;39550;52.230;5.194;2022-12-07T10:47:22;101620.56;;;4.52;79.65
53647;BME280;39550;52.230;5.194;2022-12-07T10:58:11;101618.78;;;4.51;80.07
53647;BME280;39550;52.230;5.194;2022-12-07T11:06:12;101597.59;;;4.52;79.87
53647;BME280;39550;52.230;5.194;2022-12-07T11:09:01;101593.41;;;4.54;80.49
53647;BME280;39550;52.230;5.194;2022-12-07T11:11:52;101589.81;;;4.49;80.59
53647;BME280;39550;52.230;5.194;2022-12-07T11:17:22;101582.81;;;4.45;80.06
53647;BME280;39550;52.230;5.194;2022-12-07T11:20:11;101590.53;;;4.46;80.37
53647;BME280;39550;52.230;5.194;2022-12-07T11:22:46;101587.38;;;4.52;80.10
53647;BME280;39550;52.230;5.194;2022-12-07T11:25:34;101589.94;;;4.52;80.08
53647;BME280;39550;52.230;5.194;2022-12-07T11:31:09;101579.97;;;4.58;80.45
53647;BME280;39550;52.230;5.194;2022-12-07T11:34:02;101581.72;;;4.59;79.86
53647;BME280;39550;52.230;5.194;2022-12-07T11:36:41;101569.09;;;4.62;79.83
53647;BME280;39550;52.230;5.194;2022-12-07T11:41:48;101565.06;;;4.67;80.37
53647;BME280;39550;52.230;5.194;2022-12-07T11:44:36;101563.44;;;4.69;79.43
53647;BME280;39550;52.230;5.194;2022-12-07T11:47:09;101563.59;;;4.72;79.83
53647;BME280;39550;52.230;5.194;2022-12-07T11:52:27;101557.81;;;4.76;79.34
53647;BME280;39550;52.230;5.194;2022-12-07T11:54:57;101555.25;;;4.76;79.67
53647;BME280;39550;52.230;5.194;2022-12-07T11:57:28;101543.53;;;4.82;78.94
53647;BME280;39550;52.230;5.194;2022-12-07T12:00:01;101541.94;;;4.84;79.25
53647;BME280;39550;52.230;5.194;2022-12-07T12:02:43;101536.91;;;4.85;79.12
53647;BME280;39550;52.230;5.194;2022-12-07T12:05:37;101532.72;;;4.87;78.69
53647;BME280;39550;52.230;5.194;2022-12-07T12:08:17;101528.75;;;4.94;78.64
53647;BME280;39550;52.230;5.194;2022-12-07T12:10:57;101525.50;;;4.98;78.84
53647;BME280;39550;52.230;5.194;2022-12-07T12:16:13;101526.34;;;5.18;78.19
53647;BME280;39550;52.230;5.194;2022-12-07T12:21:40;101527.63;;;5.51;76.61
53647;BME280;39550;52.230;5.194;2022-12-07T12:24:14;101543.16;;;5.34;76.92
53647;BME280;39550;52.230;5.194;2022-12-07T12:26:53;101549.56;;;5.03;79.27
53647;BME280;39550;52.230;5.194;2022-12-07T12:29:31;101559.16;;;4.88;79.87
53647;BME280;39550;52.230;5.194;2022-12-07T12:32:45;101549.25;;;4.76;80.33
53647;BME280;39550;52.230;5.194;2022-12-07T12:35:34;101528.66;;;4.71;80.71
53647;BME280;39550;52.230;5.194;2022-12-07T12:38:26;101520.03;;;4.69;80.79
53647;BME280;39550;52.230;5.194;2022-12-07T12:40:53;101521.66;;;4.67;80.92
53647;BME280;39550;52.230;5.194;2022-12-07T12:43:53;101514.06;;;4.69;80.66
53647;BME280;39550;52.230;5.194;2022-12-07T12:54:31;101451.69;;;4.42;80.79
53647;BME280;39550;52.230;5.194;2022-12-07T12:59:34;101352.94;;;3.99;80.25
53647;BME280;39550;52.230;5.194;2022-12-07T13:03:40;101485.25;;;4.71;79.97
53647;BME280;39550;52.230;5.194;2022-12-07T13:05:35;101411.09;;;4.28;80.00
53647;BME280;39550;52.230;5.194;2022-12-07T13:08:03;101370.13;;;4.03;80.20
53647;BME280;39550;52.230;5.194;2022-12-07T13:10:37;101486.50;;;4.81;80.25
53647;BME280;39550;52.230;5.194;2022-12-07T13:18:38;101345.47;;;4.04;80.50
53647;BME280;39550;52.230;5.194;2022-12-07T13:24:00;101464.16;;;4.75;80.89
53647;BME280;39550;52.230;5.194;2022-12-07T13:26:40;101332.25;;;3.93;80.18
53647;BME280;39550;52.230;5.194;2022-12-07T13:32:04;101474.03;;;4.68;80.97
53647;BME280;39550;52.230;5.194;2022-12-07T13:34:37;101385.16;;;4.17;80.76
53647;BME280;39550;52.230;5.194;2022-12-07T13:37:28;101453.59;;;4.68;80.33
53647;BME280;39550;52.230;5.194;2022-12-07T13:39:57;101462.94;;;4.67;80.74
53647;BME280;39550;52.230;5.194;2022-12-07T13:42:28;101447.63;;;4.67;81.34
53647;BME280;39550;52.230;5.194;2022-12-07T13:44:54;101384.84;;;4.30;80.25
53647;BME280;39550;52.230;5.194;2022-12-07T13:47:32;101397.31;;;4.43;81.36
53647;BME280;39550;52.230;5.194;2022-12-07T13:50:00;101366.69;;;4.22;80.55
53647;BME280;39550;52.230;5.194;2022-12-07T13:52:28;101376.50;;;4.34;80.42
53647;BME280;39550;52.230;5.194;2022-12-07T13:57:34;101393.88;;;4.43;80.55
53647;BME280;39550;52.230;5.194;2022-12-07T14:00:01;101387.97;;;4.44;80.25
53647;BME280;39550;52.230;5.194;2022-12-07T14:02:33;101323.66;;;4.11;80.41
53647;BME280;39550;52.230;5.194;2022-12-07T14:05:24;101378.78;;;4.48;80.46
53647;BME280;39550;52.230;5.194;2022-12-07T14:07:55;101425.91;;;4.77;80.51
53647;BME280;39550;52.230;5.194;2022-12-07T14:10:25;101332.63;;;4.22;80.51
53647;BME280;39550;52.230;5.194;2022-12-07T14:12:50;101276.03;;;3.90;80.06
53647;BME280;39550;52.230;5.194;2022-12-07T14:15:22;101399.94;;;4.66;80.34
53647;BME280;39550;52.230;5.194;2022-12-07T14:17:53;101398.97;;;4.63;80.32
53647;BME280;39550;52.230;5.194;2022-12-07T14:20:36;101270.94;;;3.90;80.42
53647;BME280;39550;52.230;5.194;2022-12-07T14:23:03;101279.66;;;3.95;80.91
53647;BME280;39550;52.230;5.194;2022-12-07T14:26:03;101305.91;;;4.14;80.36
53647;BME280;39550;52.230;5.194;2022-12-07T14:28:35;101322.47;;;4.23;80.88
53647;BME280;39550;52.230;5.194;2022-12-07T14:31:02;101270.88;;;3.88;80.68
53647;BME280;39550;52.230;5.194;2022-12-07T14:33:27;101387.72;;;4.59;81.09
53647;BME280;39550;52.230;5.194;2022-12-07T14:35:53;101350.31;;;4.38;80.99
53647;BME280;39550;52.230;5.194;2022-12-07T14:38:23;101311.97;;;4.16;80.99
53647;BME280;39550;52.230;5.194;2022-12-07T14:40:53;101325.59;;;4.16;81.09
53647;BME280;39550;52.230;5.194;2022-12-07T14:43:40;101331.31;;;4.11;81.32
53647;BME280;39550;52.230;5.194;2022-12-07T14:46:05;101428.81;;;4.65;81.12
53647;BME280;39550;52.230;5.194;2022-12-07T14:48:31;101348.66;;;4.19;81.64
53647;BME280;39550;52.230;5.194;2022-12-07T14:50:56;101281.81;;;3.86;80.85
53647;BME280;39550;52.230;5.194;2022-12-07T14:53:28;101385.53;;;4.47;80.95
53647;BME280;39550;52.230;5.194;2022-12-07T14:55:54;101273.91;;;3.80;80.87
53647;BME280;39550;52.230;5.194;2022-12-07T14:58:23;101416.00;;;4.64;81.19
53647;BME280;39550;52.230;5.194;2022-12-07T15:00:49;101346.25;;;4.22;81.08
53647;BME280;39550;52.230;5.194;2022-12-07T15:03:15;101352.47;;;4.29;81.08
53647;BME280;39550;52.230;5.194;2022-12-07T15:05:41;101248.16;;;3.73;81.65
53647;BME280;39550;52.230;5.194;2022-12-07T15:08:09;101318.72;;;4.15;81.45
53647;BME280;39550;52.230;5.194;2022-12-07T15:10:35;101295.34;;;4.04;81.48
53647;BME280;39550;52.230;5.194;2022-12-07T15:13:04;101261.97;;;3.79;81.03
53647;BME280;39550;52.230;5.194;2022-12-07T15:16:02;101358.72;;;4.36;81.54